Beech Island, South Carolina
Current Conditions -  °F | °C
As of 6:53 PM on Saturday 22 Nov 2014 (Local Time) from KAGS Reporting Station
Clear Clear  
Wind Chill:   Ceiling: Unl
Heat Index:   Visibility: 10mi
Dew Point: -1°   Wind: 0mph
Humidity: 48%   Direction: NA
Pressure: 30.31"   Gusts: NA
Location:  33.43°N, 81.89°W
Report Text: KAGS 222353Z 00000KT 10SM CLR 09/M01 A3031 RMK AO2 SLP263 T00941011 10189 20094 57007
Loading
Personal Weather Stations






























Interactive Weather Map New forecast layout! Learn more

10-Day Weather Forecast

Advertisements
Track Severe Weather on mobile